createdAt,value
2019-03-17T00:00:55.817Z,15.90
2019-03-17T00:03:25.961Z,15.90
2019-03-17T00:05:56.327Z,15.90
2019-03-17T00:08:26.521Z,15.80
2019-03-17T00:10:56.528Z,15.80
2019-03-17T00:13:26.598Z,15.80
2019-03-17T00:15:56.674Z,15.80
2019-03-17T00:18:26.741Z,15.70
2019-03-17T00:20:56.879Z,15.70
2019-03-17T00:23:26.949Z,15.70
2019-03-17T00:25:57.318Z,15.70
2019-03-17T00:28:27.462Z,15.60
2019-03-17T00:30:57.464Z,15.60
2019-03-17T00:33:27.452Z,15.60
2019-03-17T00:35:57.556Z,15.60
2019-03-17T00:38:27.947Z,15.60
2019-03-17T00:40:58.084Z,15.60
2019-03-17T00:43:28.222Z,15.60
2019-03-17T00:45:58.655Z,15.50
2019-03-17T00:48:28.720Z,15.50
2019-03-17T00:50:58.787Z,15.40
2019-03-17T00:53:28.871Z,15.40
2019-03-17T00:55:58.928Z,15.30
2019-03-17T00:58:29.010Z,15.30
2019-03-17T01:01:00.074Z,15.20
2019-03-17T01:03:30.183Z,15.20
2019-03-17T01:06:00.705Z,15.20
2019-03-17T01:08:30.910Z,15.10
2019-03-17T01:11:00.977Z,15.20
2019-03-17T01:13:31.050Z,15.20
2019-03-17T01:16:01.120Z,15.20
2019-03-17T01:18:31.202Z,15.20
2019-03-17T01:21:01.343Z,15.20
2019-03-17T01:23:31.834Z,15.20
2019-03-17T01:26:01.976Z,15.20
2019-03-17T01:28:32.107Z,15.20
2019-03-17T01:31:02.514Z,15.20
2019-03-17T01:33:32.505Z,15.20
2019-03-17T01:36:02.577Z,15.20
2019-03-17T01:38:32.788Z,15.10
2019-03-17T01:41:02.781Z,15.10
2019-03-17T01:43:33.920Z,15.00
2019-03-17T01:46:04.553Z,15.00
2019-03-17T01:48:34.637Z,15.10
2019-03-17T01:51:04.702Z,15.00
2019-03-17T01:53:34.864Z,15.10
2019-03-17T01:56:04.860Z,15.10
2019-03-17T01:58:34.936Z,15.10
2019-03-17T02:01:05.382Z,15.10
2019-03-17T02:03:35.375Z,15.00
2019-03-17T02:06:06.521Z,15.00
2019-03-17T02:08:36.651Z,15.00
2019-03-17T02:11:06.903Z,15.00
2019-03-17T02:13:37.025Z,15.00
2019-03-17T02:16:07.026Z,14.90
2019-03-17T02:18:36.996Z,14.90
2019-03-17T02:21:07.193Z,14.90
2019-03-17T02:23:37.194Z,14.80
2019-03-17T02:26:07.280Z,14.80
2019-03-17T02:28:37.423Z,14.80
2019-03-17T02:31:07.490Z,14.80
2019-03-17T02:33:37.949Z,14.80
2019-03-17T02:36:08.087Z,14.80
2019-03-17T02:38:38.175Z,14.80
2019-03-17T02:41:08.229Z,14.70
2019-03-17T02:43:38.316Z,14.70
2019-03-17T02:46:08.512Z,14.80
2019-03-17T02:48:38.697Z,14.80
2019-03-17T02:51:08.752Z,14.80
2019-03-17T02:53:39.118Z,14.80
2019-03-17T02:56:09.645Z,14.80
2019-03-17T02:58:39.645Z,14.80
2019-03-17T03:01:10.975Z,14.80
2019-03-17T03:03:41.550Z,14.80
2019-03-17T03:06:11.688Z,14.70
2019-03-17T03:08:42.189Z,14.70
2019-03-17T03:11:12.372Z,14.70
2019-03-17T03:13:42.437Z,14.70
2019-03-17T03:16:12.542Z,14.70
2019-03-17T03:18:42.678Z,14.70
2019-03-17T03:21:12.747Z,14.60
2019-03-17T03:23:43.034Z,14.70
2019-03-17T03:26:13.106Z,14.60
2019-03-17T03:28:43.177Z,14.70
2019-03-17T03:31:13.320Z,14.70
2019-03-17T03:33:43.811Z,14.60
2019-03-17T03:36:13.864Z,14.60
2019-03-17T03:38:44.342Z,14.70
2019-03-17T03:41:14.475Z,14.70
2019-03-17T03:43:44.614Z,14.60
2019-03-17T03:46:15.116Z,14.60
2019-03-17T03:48:45.390Z,14.60
2019-03-17T03:51:15.749Z,14.60
2019-03-17T03:53:46.182Z,14.50
2019-03-17T03:56:16.259Z,14.50
2019-03-17T03:58:47.093Z,14.50
2019-03-17T04:01:17.233Z,14.50
2019-03-17T04:03:47.469Z,14.50
2019-03-17T04:06:26.195Z,14.50
2019-03-17T04:08:49.174Z,14.50
2019-03-17T04:11:19.683Z,14.40
2019-03-17T04:13:49.754Z,14.40
2019-03-17T04:16:19.833Z,14.40
2019-03-17T04:18:49.831Z,14.40
2019-03-17T04:21:19.903Z,14.40
2019-03-17T04:23:50.318Z,14.40
2019-03-17T04:26:20.410Z,14.40
2019-03-17T04:28:50.473Z,14.40
2019-03-17T04:31:20.611Z,14.40
2019-03-17T04:33:50.961Z,14.40
2019-03-17T04:36:21.291Z,14.40
2019-03-17T04:38:51.721Z,14.40
2019-03-17T04:41:22.774Z,14.30
2019-03-17T04:43:53.295Z,14.30
2019-03-17T04:46:23.360Z,14.20
2019-03-17T04:48:53.523Z,14.20
2019-03-17T04:51:23.496Z,14.20
2019-03-17T04:53:53.561Z,14.20
2019-03-17T04:56:23.718Z,14.20
2019-03-17T04:58:53.716Z,14.20
2019-03-17T05:01:23.806Z,14.30
2019-03-17T05:03:54.244Z,14.30
2019-03-17T05:06:24.614Z,14.30
2019-03-17T05:08:54.972Z,14.30
2019-03-17T05:11:25.326Z,14.30
2019-03-17T05:13:55.320Z,14.30
2019-03-17T05:16:25.658Z,14.30
2019-03-17T05:18:55.806Z,14.30
2019-03-17T05:21:25.864Z,14.20
2019-03-17T05:23:56.004Z,14.20
2019-03-17T05:26:26.454Z,14.20
2019-03-17T05:28:56.764Z,14.10
2019-03-17T05:31:26.760Z,14.20
2019-03-17T05:33:56.916Z,13.40
2019-03-17T05:36:27.339Z,12.90
2019-03-17T05:38:58.561Z,12.40
2019-03-17T05:41:29.012Z,12.00
2019-03-17T05:43:59.533Z,11.70
2019-03-17T05:46:29.545Z,11.50
2019-03-17T05:48:59.613Z,11.40
2019-03-17T05:51:29.985Z,11.60
2019-03-17T05:54:00.240Z,11.70
2019-03-17T05:56:30.856Z,11.40
2019-03-17T05:59:01.275Z,11.20
2019-03-17T06:01:31.702Z,11.30
2019-03-17T06:04:01.845Z,11.50
2019-03-17T06:06:32.255Z,11.70
2019-03-17T06:09:02.386Z,11.80
2019-03-17T06:11:32.499Z,11.70
2019-03-17T06:14:02.511Z,11.70
2019-03-17T06:16:32.658Z,11.80
2019-03-17T06:19:02.737Z,11.80
2019-03-17T06:21:33.177Z,11.70
2019-03-17T06:24:03.696Z,11.70
2019-03-17T06:26:33.906Z,11.80
2019-03-17T06:29:03.981Z,11.80
2019-03-17T06:31:34.057Z,11.90
2019-03-17T06:34:05.279Z,12.00
2019-03-17T06:36:35.747Z,12.20
2019-03-17T06:39:07.194Z,12.50
2019-03-17T06:41:38.737Z,12.50
2019-03-17T06:44:08.886Z,12.60
2019-03-17T06:46:39.283Z,12.90
2019-03-17T06:49:09.437Z,13.10
2019-03-17T06:51:40.493Z,13.20
2019-03-17T06:54:10.759Z,13.40
2019-03-17T06:56:41.302Z,13.50
2019-03-17T06:59:11.724Z,13.70
2019-03-17T07:01:41.868Z,13.90
2019-03-17T07:04:12.009Z,14.00
2019-03-17T07:06:42.163Z,14.10
2019-03-17T07:09:12.788Z,14.20
2019-03-17T07:11:43.034Z,14.50
2019-03-17T07:14:13.093Z,14.60
2019-03-17T07:16:43.182Z,14.70
2019-03-17T07:19:13.286Z,14.90
2019-03-17T07:21:43.720Z,15.10
2019-03-17T07:24:13.934Z,15.60
2019-03-17T07:26:44.104Z,16.40
2019-03-17T07:29:14.176Z,17.50
2019-03-17T07:31:44.629Z,18.40
2019-03-17T07:34:14.634Z,18.90
2019-03-17T07:36:44.764Z,19.50
2019-03-17T07:39:14.848Z,19.60
2019-03-17T07:41:44.917Z,20.40
2019-03-17T07:44:15.408Z,21.10
2019-03-17T07:46:45.482Z,21.50
2019-03-17T07:49:15.629Z,22.20
2019-03-17T07:51:45.777Z,22.40
2019-03-17T07:54:15.848Z,22.60
2019-03-17T07:56:45.846Z,23.10
2019-03-17T07:59:16.038Z,23.10
2019-03-17T08:01:46.467Z,23.20
2019-03-17T08:04:16.541Z,23.80
2019-03-17T08:06:47.010Z,23.70
2019-03-17T08:09:17.573Z,24.30
2019-03-17T08:11:47.575Z,24.50
2019-03-17T08:14:17.709Z,24.80
2019-03-17T08:16:48.198Z,25.10
2019-03-17T08:19:18.359Z,25.60
2019-03-17T08:21:48.854Z,25.90
2019-03-17T08:24:19.277Z,26.20
2019-03-17T08:26:50.229Z,26.40
2019-03-17T08:29:20.842Z,26.50
2019-03-17T08:31:50.912Z,25.80
2019-03-17T08:34:21.393Z,26.30
2019-03-17T08:36:51.818Z,25.90
2019-03-17T08:39:21.953Z,26.00
2019-03-17T08:41:52.490Z,26.40
2019-03-17T08:44:23.636Z,26.50
2019-03-17T08:46:53.701Z,26.40
2019-03-17T08:49:23.852Z,26.60
2019-03-17T08:51:54.202Z,27.00
2019-03-17T08:54:24.612Z,27.00
2019-03-17T08:56:54.962Z,28.00
2019-03-17T08:59:24.972Z,28.00
2019-03-17T09:01:55.049Z,28.20
2019-03-17T09:04:26.119Z,28.40
2019-03-17T09:06:56.136Z,28.40
2019-03-17T09:09:27.337Z,28.20
2019-03-17T09:11:57.782Z,28.60
2019-03-17T09:14:28.133Z,28.70
2019-03-17T09:16:58.525Z,28.90
2019-03-17T09:19:28.973Z,29.30
2019-03-17T09:21:59.126Z,29.10
2019-03-17T09:24:29.195Z,29.90
2019-03-17T09:26:59.334Z,29.50
2019-03-17T09:29:29.421Z,29.10
2019-03-17T09:31:59.484Z,29.60
2019-03-17T09:34:29.489Z,29.60
2019-03-17T09:36:59.487Z,28.50
2019-03-17T09:39:29.492Z,28.50
2019-03-17T09:41:59.653Z,28.40
2019-03-17T09:44:29.662Z,28.70
2019-03-17T09:46:59.734Z,28.40
2019-03-17T09:49:29.911Z,28.30
2019-03-17T09:52:00.413Z,27.90
2019-03-17T09:54:30.434Z,28.00
2019-03-17T09:57:00.597Z,28.20
2019-03-17T09:59:30.681Z,28.50
2019-03-17T10:02:01.037Z,28.40
2019-03-17T10:04:31.092Z,27.90
2019-03-17T10:07:01.174Z,27.90
2019-03-17T10:09:31.563Z,27.90
2019-03-17T10:12:01.560Z,27.60
2019-03-17T10:14:31.562Z,27.40
2019-03-17T10:17:03.027Z,27.30
2019-03-17T10:19:33.089Z,28.10
2019-03-17T10:22:03.494Z,27.30
2019-03-17T10:24:33.567Z,26.40
2019-03-17T10:27:03.635Z,25.90
2019-03-17T10:29:34.069Z,25.30
2019-03-17T10:32:04.585Z,24.50
2019-03-17T10:34:34.607Z,24.20
2019-03-17T10:37:04.741Z,24.50
2019-03-17T10:39:35.987Z,24.90
2019-03-17T10:42:06.071Z,26.20
2019-03-17T10:44:36.300Z,26.80
2019-03-17T10:47:06.369Z,26.30
2019-03-17T10:49:36.749Z,25.40
2019-03-17T10:52:06.886Z,24.90
2019-03-17T10:54:37.296Z,25.40
2019-03-17T10:57:07.365Z,25.00
2019-03-17T10:59:37.582Z,24.30
2019-03-17T11:02:07.730Z,23.40
2019-03-17T11:04:38.197Z,22.90
2019-03-17T11:07:08.624Z,22.60
2019-03-17T11:09:38.760Z,22.20
2019-03-17T11:12:08.906Z,22.20
2019-03-17T11:14:38.888Z,22.10
2019-03-17T11:17:09.296Z,22.10
2019-03-17T11:19:39.828Z,22.20
2019-03-17T11:22:10.260Z,22.20
2019-03-17T11:24:40.341Z,22.30
2019-03-17T11:27:10.800Z,22.40
2019-03-17T11:29:41.338Z,22.50
2019-03-17T11:32:11.881Z,22.40
2019-03-17T11:34:41.865Z,22.20
2019-03-17T11:37:11.993Z,22.40
2019-03-17T11:39:42.074Z,22.40
2019-03-17T11:42:12.212Z,22.60
2019-03-17T11:44:42.277Z,22.50
2019-03-17T11:47:12.278Z,22.30
2019-03-17T11:49:42.782Z,22.00
2019-03-17T11:52:14.349Z,22.20
2019-03-17T11:54:44.498Z,21.90
2019-03-17T11:57:15.002Z,22.00
2019-03-17T11:59:45.066Z,21.80
2019-03-17T12:02:26.068Z,21.80
2019-03-17T12:04:47.190Z,21.70
2019-03-17T12:07:17.264Z,21.50
2019-03-17T12:09:50.318Z,21.70
2019-03-17T12:12:19.402Z,21.50
2019-03-17T12:14:49.464Z,21.40
2019-03-17T12:17:19.610Z,21.30
2019-03-17T12:19:49.673Z,21.30
2019-03-17T12:22:19.821Z,21.20
2019-03-17T12:24:49.894Z,21.20
2019-03-17T12:27:19.993Z,21.50
2019-03-17T12:29:50.078Z,21.50
2019-03-17T12:32:20.152Z,21.30
2019-03-17T12:34:50.159Z,20.90
2019-03-17T12:37:20.145Z,20.80
2019-03-17T12:40:01.767Z,20.70
2019-03-17T12:42:21.903Z,20.70
2019-03-17T12:44:52.394Z,20.60
2019-03-17T12:47:22.534Z,20.40
2019-03-17T12:49:52.671Z,20.70
2019-03-17T12:52:23.743Z,20.60
2019-03-17T12:54:54.211Z,20.70
2019-03-17T12:57:24.223Z,20.40
2019-03-17T12:59:54.358Z,20.30
2019-03-17T13:02:24.435Z,20.40
2019-03-17T13:04:54.886Z,20.30
2019-03-17T13:07:25.319Z,20.10
2019-03-17T13:09:55.386Z,19.90
2019-03-17T13:12:25.596Z,19.80
2019-03-17T13:14:55.956Z,19.80
2019-03-17T13:17:26.105Z,19.70
2019-03-17T13:19:56.169Z,19.80
2019-03-17T13:22:26.343Z,19.90
2019-03-17T13:24:56.410Z,19.90
2019-03-17T13:27:26.487Z,19.90
2019-03-17T13:29:56.609Z,20.00
2019-03-17T13:32:27.028Z,20.10
2019-03-17T13:34:57.162Z,20.10
2019-03-17T13:37:27.160Z,20.30
2019-03-17T13:39:57.301Z,20.40
2019-03-17T13:42:27.714Z,20.40
2019-03-17T13:44:57.776Z,20.50
2019-03-17T13:47:27.842Z,20.50
2019-03-17T13:49:58.273Z,20.60
2019-03-17T13:52:28.334Z,20.70
2019-03-17T13:54:58.449Z,20.60
2019-03-17T13:57:28.522Z,20.60
2019-03-17T13:59:58.596Z,20.50
2019-03-17T14:02:29.070Z,20.20
2019-03-17T14:04:59.275Z,20.20
2019-03-17T14:07:29.349Z,20.30
2019-03-17T14:09:59.756Z,20.20
2019-03-17T14:12:29.817Z,20.10
2019-03-17T14:15:00.248Z,20.20
2019-03-17T14:17:30.528Z,20.20
2019-03-17T14:20:00.595Z,20.10
2019-03-17T14:22:30.665Z,20.20
2019-03-17T14:25:02.199Z,20.20
2019-03-17T14:27:32.274Z,20.20
2019-03-17T14:30:02.860Z,20.20
2019-03-17T14:32:33.298Z,20.10
2019-03-17T14:35:04.319Z,20.10
2019-03-17T14:37:34.458Z,19.90
2019-03-17T14:40:07.561Z,20.00
2019-03-17T14:42:37.706Z,20.10
2019-03-17T14:45:11.078Z,20.10
2019-03-17T14:47:41.676Z,20.00
2019-03-17T14:50:20.270Z,19.90
2019-03-17T14:52:51.323Z,19.80
2019-03-17T14:55:21.857Z,19.80
2019-03-17T14:57:52.014Z,19.80
2019-03-17T15:00:25.192Z,19.80
2019-03-17T15:02:55.518Z,19.80
2019-03-17T15:05:25.633Z,19.60
2019-03-17T15:07:55.725Z,19.60
2019-03-17T15:10:26.312Z,19.60
2019-03-17T15:12:56.729Z,19.70
2019-03-17T15:15:26.884Z,19.60
2019-03-17T15:17:57.017Z,19.70
2019-03-17T15:20:28.093Z,19.70
2019-03-17T15:22:58.284Z,19.70
2019-03-17T15:25:30.159Z,19.60
2019-03-17T15:28:00.229Z,19.60
2019-03-17T15:30:32.350Z,19.50
2019-03-17T15:33:02.405Z,19.40
2019-03-17T15:35:32.474Z,19.20
2019-03-17T15:38:02.534Z,19.00
2019-03-17T15:40:32.629Z,18.90
2019-03-17T15:43:02.696Z,18.70
2019-03-17T15:45:33.154Z,18.70
2019-03-17T15:48:04.347Z,18.70
2019-03-17T15:50:35.097Z,18.60
2019-03-17T15:53:05.168Z,18.60
2019-03-17T15:55:35.377Z,18.60
2019-03-17T15:58:05.910Z,18.50
2019-03-17T16:00:36.230Z,18.50
2019-03-17T16:03:06.377Z,18.50
2019-03-17T16:05:36.431Z,18.50
2019-03-17T16:08:06.518Z,18.50
2019-03-17T16:10:36.580Z,18.60
2019-03-17T16:13:06.686Z,18.50
2019-03-17T16:15:37.049Z,18.60
2019-03-17T16:18:07.262Z,18.70
2019-03-17T16:20:37.258Z,18.80
2019-03-17T16:23:07.269Z,18.80
2019-03-17T16:25:38.625Z,18.90
2019-03-17T16:28:09.098Z,18.70
2019-03-17T16:30:39.611Z,18.70
2019-03-17T16:33:09.706Z,18.70
2019-03-17T16:35:40.100Z,18.60
2019-03-17T16:38:10.241Z,18.50
2019-03-17T16:40:40.723Z,18.30
2019-03-17T16:43:11.239Z,18.20
2019-03-17T16:45:41.443Z,18.30
2019-03-17T16:48:11.926Z,18.20
2019-03-17T16:50:42.318Z,18.10
2019-03-17T16:53:12.309Z,18.10
2019-03-17T16:55:42.687Z,18.10
2019-03-17T16:58:13.044Z,18.10
2019-03-17T17:00:43.475Z,18.10
2019-03-17T17:03:14.713Z,18.10
2019-03-17T17:05:46.316Z,18.20
2019-03-17T17:08:16.372Z,18.20
2019-03-17T17:10:50.256Z,18.20
2019-03-17T17:13:18.170Z,18.10
2019-03-17T17:15:48.637Z,18.20
2019-03-17T17:18:18.918Z,18.10
2019-03-17T17:20:49.002Z,18.10
2019-03-17T17:23:19.142Z,18.10
2019-03-17T17:25:49.500Z,18.20
2019-03-17T17:28:19.613Z,18.20
2019-03-17T17:30:49.833Z,18.10
2019-03-17T17:33:19.901Z,18.10
2019-03-17T17:35:50.044Z,18.00
2019-03-17T17:38:20.204Z,18.00
2019-03-17T17:40:50.356Z,18.00
2019-03-17T17:43:20.758Z,18.10
2019-03-17T17:45:50.841Z,18.10
2019-03-17T17:48:21.076Z,18.00
2019-03-17T17:50:51.451Z,18.00
2019-03-17T17:53:22.056Z,17.90
2019-03-17T17:55:52.133Z,17.90
2019-03-17T17:58:22.261Z,17.80
2019-03-17T18:00:52.445Z,17.80
2019-03-17T18:03:22.485Z,17.70
2019-03-17T18:05:52.855Z,17.60
2019-03-17T18:08:23.287Z,17.50
2019-03-17T18:10:53.719Z,17.60
2019-03-17T18:13:23.769Z,17.70
2019-03-17T18:15:54.218Z,17.80
2019-03-17T18:18:25.364Z,17.70
2019-03-17T18:20:55.830Z,17.70
2019-03-17T18:23:25.913Z,17.60
2019-03-17T18:25:56.038Z,17.40
2019-03-17T18:28:26.043Z,17.30
2019-03-17T18:30:56.629Z,17.20
2019-03-17T18:33:26.705Z,17.10
2019-03-17T18:35:56.869Z,16.90
2019-03-17T18:38:27.282Z,16.90
2019-03-17T18:40:57.425Z,16.80
2019-03-17T18:43:27.528Z,16.70
2019-03-17T18:45:57.950Z,16.50
2019-03-17T18:48:27.953Z,16.60
2019-03-17T18:50:58.416Z,16.70
2019-03-17T18:53:28.475Z,16.70
2019-03-17T18:55:58.566Z,16.70
2019-03-17T18:58:28.637Z,16.70
2019-03-17T19:00:59.104Z,16.70
2019-03-17T19:03:29.199Z,16.70
2019-03-17T19:05:59.338Z,16.70
2019-03-17T19:08:29.538Z,16.70
2019-03-17T19:10:59.680Z,16.70
2019-03-17T19:13:30.191Z,16.60
2019-03-17T19:16:00.280Z,16.70
2019-03-17T19:18:30.347Z,16.70
2019-03-17T19:21:00.751Z,16.60
2019-03-17T19:23:30.752Z,16.80
2019-03-17T19:26:00.745Z,16.80
2019-03-17T19:28:31.209Z,16.90
2019-03-17T19:31:01.637Z,16.90
2019-03-17T19:33:32.181Z,16.80
2019-03-17T19:36:02.170Z,17.00
2019-03-17T19:38:32.242Z,17.40
2019-03-17T19:41:02.305Z,17.80
2019-03-17T19:43:32.853Z,18.10
2019-03-17T19:46:03.376Z,18.40
2019-03-17T19:48:33.804Z,18.70
2019-03-17T19:51:03.941Z,18.90
2019-03-17T19:53:34.022Z,19.00
2019-03-17T19:56:04.160Z,19.20
2019-03-17T19:58:34.369Z,19.30
2019-03-17T20:01:04.543Z,19.40
2019-03-17T20:03:34.584Z,19.40
2019-03-17T20:06:04.735Z,19.50
2019-03-17T20:08:34.792Z,19.60
2019-03-17T20:11:05.593Z,19.60
2019-03-17T20:13:35.662Z,19.50
2019-03-17T20:16:06.142Z,19.60
2019-03-17T20:18:36.577Z,19.60
2019-03-17T20:21:06.853Z,19.60
2019-03-17T20:23:36.940Z,19.60
2019-03-17T20:26:07.085Z,19.60
2019-03-17T20:28:37.229Z,19.60
2019-03-17T20:31:07.362Z,19.60
2019-03-17T20:33:37.372Z,19.60
2019-03-17T20:36:07.508Z,19.50
2019-03-17T20:38:37.591Z,19.60
2019-03-17T20:41:08.156Z,19.60
2019-03-17T20:43:38.167Z,19.60
2019-03-17T20:46:08.233Z,19.60
2019-03-17T20:48:38.307Z,19.60
2019-03-17T20:51:08.517Z,19.60
2019-03-17T20:53:38.975Z,19.50
2019-03-17T20:56:08.978Z,19.60
2019-03-17T20:58:39.125Z,19.60
2019-03-17T21:01:09.284Z,19.60
2019-03-17T21:03:39.350Z,19.60
2019-03-17T21:06:09.668Z,19.60
2019-03-17T21:08:40.081Z,19.60
2019-03-17T21:11:10.150Z,19.60
2019-03-17T21:13:46.683Z,19.60
2019-03-17T21:16:12.244Z,19.50
2019-03-17T21:18:42.721Z,19.60
2019-03-17T21:21:13.069Z,19.60
2019-03-17T21:23:43.194Z,19.60
2019-03-17T21:26:13.276Z,19.60
2019-03-17T21:28:43.273Z,19.60
2019-03-17T21:31:13.386Z,19.60
2019-03-17T21:33:43.452Z,19.60
2019-03-17T21:36:13.509Z,19.60
2019-03-17T21:38:43.941Z,19.50
2019-03-17T21:41:14.060Z,19.50
2019-03-17T21:43:44.133Z,19.50
2019-03-17T21:46:14.189Z,19.50
2019-03-17T21:48:44.325Z,19.50
2019-03-17T21:51:14.886Z,19.40
2019-03-17T21:53:45.101Z,19.50
2019-03-17T21:56:15.159Z,19.50
2019-03-17T21:58:45.216Z,19.60
2019-03-17T22:01:15.209Z,19.60
2019-03-17T22:03:45.303Z,19.60
2019-03-17T22:06:15.284Z,19.60
2019-03-17T22:08:45.839Z,19.60
2019-03-17T22:11:16.163Z,19.50
2019-03-17T22:13:46.294Z,19.50
2019-03-17T22:16:16.805Z,19.40
2019-03-17T22:18:47.120Z,19.30
2019-03-17T22:21:17.262Z,19.30
2019-03-17T22:23:47.385Z,19.30
2019-03-17T22:26:17.456Z,19.30
2019-03-17T22:28:47.515Z,19.30
2019-03-17T22:31:17.927Z,19.40
2019-03-17T22:33:48.353Z,19.40
2019-03-17T22:36:18.354Z,19.40
2019-03-17T22:38:48.331Z,19.40
2019-03-17T22:41:18.337Z,19.30
2019-03-17T22:43:48.398Z,19.30
2019-03-17T22:46:18.760Z,19.30
2019-03-17T22:48:48.890Z,19.30
2019-03-17T22:51:19.097Z,19.30
2019-03-17T22:53:49.369Z,19.30
2019-03-17T22:56:19.842Z,19.30
2019-03-17T22:58:49.979Z,19.30
2019-03-17T23:01:20.026Z,19.40
2019-03-17T23:03:50.127Z,19.40
2019-03-17T23:06:20.248Z,19.40
2019-03-17T23:08:50.310Z,19.40
2019-03-17T23:11:20.293Z,19.30
2019-03-17T23:13:51.600Z,19.30
2019-03-17T23:16:22.020Z,19.30
2019-03-17T23:18:52.448Z,19.30
2019-03-17T23:21:22.773Z,19.40
2019-03-17T23:23:53.312Z,19.40
2019-03-17T23:26:23.724Z,19.30
2019-03-17T23:28:53.933Z,19.30
2019-03-17T23:31:24.382Z,19.30
2019-03-17T23:33:54.720Z,19.30
2019-03-17T23:36:25.028Z,19.30
2019-03-17T23:38:55.448Z,19.30
2019-03-17T23:41:25.782Z,19.30
2019-03-17T23:43:55.839Z,19.20
2019-03-17T23:46:25.906Z,19.20
2019-03-17T23:48:55.960Z,19.20
2019-03-17T23:51:26.106Z,19.10
2019-03-17T23:53:56.165Z,19.10
2019-03-17T23:56:26.696Z,19.10
2019-03-17T23:58:56.828Z,19.10
